Time;durP1;ratioP1;P1;durP2;ratioP2;P2;SDS_P1;SDS_P2;PMS_P1;PMS_P2;Temp;Humidity;BMP_temperature;BMP_pressure;BME280_temperature;BME280_humidity;BME280_pressure;Samples;Min_cycle;Max_cycle;Signal;HPM_P1;HPM_P2
2021/06/11 00:01:17;;;;;;;;;;;;;;;23.05;59.91;101777.50;2200397;39;115477;-53
2021/06/11 00:02:49;;;;;;;;;;;;;;;23.03;59.75;101774.13;2204229;39;115917;-54
2021/06/11 00:04:21;;;;;;;;;;;;;;;23.01;59.90;101781.22;2204422;39;115554;-54
2021/06/11 00:05:53;;;;;;;;;;;;;;;23.04;59.60;101778.63;2186320;39;115236;-53
2021/06/11 00:07:25;;;;;;;;;;;;;;;23.12;59.50;101776.28;2203970;39;114557;-54
2021/06/11 00:08:57;;;;;;;;;;;;;;;23.05;59.71;101788.75;2201550;39;113828;-53
2021/06/11 00:10:29;;;;;;;;;;;;;;;23.10;59.30;101784.19;2204919;39;113835;-54
2021/06/11 00:12:01;;;;;;;;;;;;;;;23.07;59.40;101767.91;2199030;39;113947;-54
2021/06/11 00:13:33;;;;;;;;;;;;;;;23.05;59.78;101762.56;2200194;39;113836;-54
2021/06/11 00:15:06;;;;;;;;;;;;;;;23.05;59.88;101771.84;2202731;39;113863;-54
2021/06/11 00:16:38;;;;;;;;;;;;;;;23.05;59.90;101765.38;2205971;39;113617;-54
2021/06/11 00:18:10;;;;;;;;;;;;;;;23.07;59.78;101779.16;2204487;39;113754;-54
2021/06/11 00:19:42;;;;;;;;;;;;;;;23.07;59.73;101776.34;2205376;39;113672;-54
2021/06/11 00:21:14;;;;;;;;;;;;;;;23.03;59.80;101762.84;2205000;39;113819;-54
2021/06/11 00:22:46;;;;;;;;;;;;;;;23.07;59.69;101768.75;2197435;39;113990;-54
2021/06/11 00:24:17;;;;;;;;;;;;;;;23.04;59.74;101770.16;2201769;39;114090;-54
2021/06/11 00:25:50;;;;;;;;;;;;;;;23.10;59.59;101767.28;2203685;39;114073;-54
2021/06/11 00:27:21;;;;;;;;;;;;;;;23.10;59.60;101767.28;2204443;39;114030;-53
2021/06/11 00:28:53;;;;;;;;;;;;;;;23.04;59.71;101767.34;2204005;39;113958;-53
2021/06/11 00:30:25;;;;;;;;;;;;;;;23.05;59.78;101763.41;2206639;39;113816;-54
2021/06/11 00:31:57;;;;;;;;;;;;;;;23.07;59.70;101759.44;2194601;39;115934;-54
2021/06/11 00:33:29;;;;;;;;;;;;;;;23.04;59.60;101767.34;2199236;39;115649;-54
2021/06/11 00:35:01;;;;;;;;;;;;;;;23.03;59.77;101762.84;2196333;39;114746;-54
2021/06/11 00:36:33;;;;;;;;;;;;;;;23.08;59.57;101756.28;2199245;39;114866;-54
2021/06/11 00:38:07;;;;;;;;;;;;;;;23.03;59.70;101757.22;2202477;39;114935;-53
2021/06/11 00:39:39;;;;;;;;;;;;;;;23.10;59.48;101751.19;2201371;39;114758;-54
2021/06/11 00:41:11;;;;;;;;;;;;;;;23.04;59.62;101753.25;2204342;39;114788;-54
2021/06/11 00:42:43;;;;;;;;;;;;;;;23.02;59.73;101751.91;2205183;39;114743;-54
2021/06/11 00:44:15;;;;;;;;;;;;;;;23.02;59.86;101757.53;2200090;39;114843;-53
2021/06/11 00:45:46;;;;;;;;;;;;;;;23.10;59.68;101750.34;2203930;39;114982;-54
2021/06/11 00:47:18;;;;;;;;;;;;;;;23.06;59.62;101752.97;2204808;39;114750;-54
2021/06/11 00:48:50;;;;;;;;;;;;;;;23.05;59.69;101745.63;2204334;39;114707;-54
2021/06/11 00:50:23;;;;;;;;;;;;;;;23.05;59.77;101745.63;2199317;39;114899;-54
2021/06/11 00:51:55;;;;;;;;;;;;;;;23.11;59.74;101746.41;2199907;39;114788;-54
2021/06/11 00:53:27;;;;;;;;;;;;;;;23.06;59.74;101750.13;2192618;39;115636;-54
2021/06/11 00:54:59;;;;;;;;;;;;;;;23.05;59.77;101746.47;2201143;39;116341;-54
2021/06/11 00:56:31;;;;;;;;;;;;;;;23.07;59.96;101748.16;2205110;39;114857;-55
2021/06/11 00:58:03;;;;;;;;;;;;;;;23.04;59.74;101743.97;2205191;39;115810;-54
2021/06/11 00:59:35;;;;;;;;;;;;;;;23.03;59.96;101745.13;2200643;39;115920;-54
2021/06/11 01:01:06;;;;;;;;;;;;;;;23.08;59.88;101745.00;2202898;39;115792;-58
2021/06/11 01:02:38;;;;;;;;;;;;;;;23.04;59.95;101735.50;2205086;39;114182;-54
2021/06/11 01:04:10;;;;;;;;;;;;;;;23.09;60.01;101746.69;2204614;39;116137;-54
2021/06/11 01:05:42;;;;;;;;;;;;;;;23.07;59.78;101754.66;2192188;39;116172;-54
2021/06/11 01:07:14;;;;;;;;;;;;;;;23.06;60.21;101744.50;2194660;39;115156;-54
2021/06/11 01:08:46;;;;;;;;;;;;;;;23.03;60.33;101743.13;2192028;39;115484;-54
2021/06/11 01:10:18;;;;;;;;;;;;;;;23.04;60.25;101750.44;2201258;39;114434;-54
2021/06/11 01:11:50;;;;;;;;;;;;;;;23.03;60.13;101745.94;2205197;39;115854;-54
2021/06/11 01:13:22;;;;;;;;;;;;;;;23.02;60.23;101754.72;2206936;39;115515;-54
2021/06/11 01:14:54;;;;;;;;;;;;;;;23.11;60.79;101755.69;2196900;39;114172;-54
2021/06/11 01:16:26;;;;;;;;;;;;;;;23.08;60.54;101763.94;2195727;39;114129;-54
2021/06/11 01:17:58;;;;;;;;;;;;;;;23.22;60.11;101756.34;2196000;39;113745;-55
2021/06/11 01:19:32;;;;;;;;;;;;;;;23.14;60.18;101752.25;2202880;39;113741;-54
2021/06/11 01:21:03;;;;;;;;;;;;;;;23.14;60.25;101754.25;2204678;39;113854;-54
2021/06/11 01:22:38;;;;;;;;;;;;;;;23.11;60.39;101749.22;2203207;39;116124;-54
2021/06/11 01:24:15;;;;;;;;;;;;;;;23.10;60.17;101756.84;2204967;39;113718;-54
2021/06/11 01:25:48;;;;;;;;;;;;;;;23.09;60.11;101757.97;2204806;39;113808;-54
2021/06/11 01:27:20;;;;;;;;;;;;;;;23.11;60.17;101757.69;2209270;39;113808;-54
2021/06/11 01:28:54;;;;;;;;;;;;;;;23.09;60.15;101755.16;2206937;39;113834;-54
2021/06/11 01:30:26;;;;;;;;;;;;;;;23.08;60.13;101755.47;2197987;39;113841;-54
2021/06/11 01:31:59;;;;;;;;;;;;;;;23.06;60.50;101758.59;2198494;39;113850;-54
2021/06/11 01:33:32;;;;;;;;;;;;;;;23.07;60.57;101759.44;2191861;39;113816;-54
2021/06/11 01:35:07;;;;;;;;;;;;;;;23.09;60.17;101749.53;2203495;39;114211;-54
2021/06/11 01:36:40;;;;;;;;;;;;;;;23.13;60.38;101753.41;2191859;39;113969;-53
2021/06/11 01:38:13;;;;;;;;;;;;;;;23.09;60.49;101745.84;2187302;39;115114;-54
2021/06/11 01:39:48;;;;;;;;;;;;;;;23.09;60.39;101743.88;2199261;39;114823;-54
2021/06/11 01:41:20;;;;;;;;;;;;;;;23.10;60.18;101748.38;2205143;39;115483;-54
2021/06/11 01:42:54;;;;;;;;;;;;;;;23.11;60.16;101750.06;2205251;39;115281;-54
2021/06/11 01:44:26;;;;;;;;;;;;;;;23.10;60.50;101750.34;2205104;39;114896;-54
2021/06/11 01:45:58;;;;;;;;;;;;;;;23.13;60.82;101746.91;2204232;39;114958;-53
2021/06/11 01:47:30;;;;;;;;;;;;;;;23.14;60.52;101751.41;2197824;39;114866;-54
2021/06/11 01:49:02;;;;;;;;;;;;;;;23.12;60.48;101751.75;2195696;39;114141;-54
2021/06/11 01:50:35;;;;;;;;;;;;;;;23.11;60.51;101752.88;2198051;39;115582;-54
2021/06/11 01:52:08;;;;;;;;;;;;;;;23.11;60.46;101754.88;2200006;39;114979;-55
2021/06/11 01:53:41;;;;;;;;;;;;;;;23.16;60.39;101755.63;2197232;39;114430;-54
2021/06/11 01:55:13;;;;;;;;;;;;;;;23.15;60.55;101751.13;2205964;39;114555;-54
2021/06/11 01:56:45;;;;;;;;;;;;;;;23.20;60.52;101753.88;2207721;39;114889;-54
2021/06/11 01:58:18;;;;;;;;;;;;;;;23.12;60.43;101745.25;2197352;39;116235;-54
2021/06/11 01:59:52;;;;;;;;;;;;;;;23.11;60.61;101750.06;2200758;39;114593;-54
2021/06/11 02:01:24;;;;;;;;;;;;;;;23.16;60.79;101752.81;2207547;39;115470;-55
2021/06/11 02:02:57;;;;;;;;;;;;;;;23.14;60.61;101746.63;2195728;39;116050;-54
2021/06/11 02:04:30;;;;;;;;;;;;;;;23.13;60.68;101747.75;2200685;39;115932;-54
2021/06/11 02:06:02;;;;;;;;;;;;;;;23.12;60.50;101757.38;2199399;39;117591;-54
2021/06/11 02:07:35;;;;;;;;;;;;;;;23.14;60.43;101755.06;2203961;39;115866;-55
2021/06/11 02:09:07;;;;;;;;;;;;;;;23.15;60.80;101748.31;2203398;39;116224;-54
2021/06/11 02:10:39;;;;;;;;;;;;;;;23.16;60.47;101752.81;2197057;39;115653;-54
2021/06/11 02:12:11;;;;;;;;;;;;;;;23.18;60.74;101753.31;2201698;39;115727;-54
2021/06/11 02:13:44;;;;;;;;;;;;;;;23.16;60.58;101749.97;2210533;39;115574;-54
2021/06/11 02:15:16;;;;;;;;;;;;;;;23.15;60.66;101751.13;2193844;39;114532;-54
2021/06/11 02:16:48;;;;;;;;;;;;;;;23.15;60.59;101748.31;2190884;39;115754;-54
2021/06/11 02:18:21;;;;;;;;;;;;;;;23.15;60.79;101755.91;2195525;39;115635;-54
2021/06/11 02:19:53;;;;;;;;;;;;;;;23.13;61.05;101753.41;2202901;39;115786;-54
2021/06/11 02:21:26;;;;;;;;;;;;;;;23.12;60.63;101753.72;2199387;39;113768;-54
2021/06/11 02:22:58;;;;;;;;;;;;;;;23.17;60.87;101746.00;2198509;39;114599;-53
2021/06/11 02:24:31;;;;;;;;;;;;;;;23.15;60.49;101748.31;2203866;39;113706;-53
2021/06/11 02:26:04;;;;;;;;;;;;;;;23.16;60.89;101746.31;2196128;39;114054;-54
2021/06/11 02:27:36;;;;;;;;;;;;;;;23.14;60.71;101743.81;2200806;39;114401;-54
2021/06/11 02:29:08;;;;;;;;;;;;;;;23.14;60.65;101745.78;2205385;39;114236;-54
2021/06/11 02:30:39;;;;;;;;;;;;;;;23.13;60.59;101744.09;2203774;39;113817;-54
2021/06/11 02:32:11;;;;;;;;;;;;;;;23.19;60.52;101746.53;2201580;39;113689;-53
2021/06/11 02:33:43;;;;;;;;;;;;;;;23.19;60.66;101745.69;2206339;39;114119;-56
2021/06/11 02:35:17;;;;;;;;;;;;;;;23.14;60.74;101749.44;2202785;39;113889;-54
2021/06/11 02:36:48;;;;;;;;;;;;;;;23.16;60.46;101743.50;2198031;39;113751;-54
2021/06/11 02:38:20;;;;;;;;;;;;;;;23.17;60.47;101746.00;2204849;39;113842;-54
2021/06/11 02:39:52;;;;;;;;;;;;;;;23.14;60.64;101740.97;2207256;39;114019;-54
2021/06/11 02:41:26;;;;;;;;;;;;;;;23.15;60.62;101734.22;2210104;39;114229;-54
2021/06/11 02:43:02;;;;;;;;;;;;;;;23.16;60.37;101735.03;2202141;39;114826;-54
2021/06/11 02:44:36;;;;;;;;;;;;;;;23.15;60.48;101730.53;2198791;39;114779;-54
2021/06/11 02:46:14;;;;;;;;;;;;;;;23.18;60.49;101727.09;2203203;39;115185;-54
2021/06/11 02:47:49;;;;;;;;;;;;;;;23.16;60.56;101729.41;2203792;39;114760;-54
2021/06/11 02:49:24;;;;;;;;;;;;;;;23.14;60.57;101729.72;2205294;39;114945;-53
2021/06/11 02:50:59;;;;;;;;;;;;;;;23.15;60.83;101739.84;2193241;39;115322;-53
2021/06/11 02:52:32;;;;;;;;;;;;;;;23.16;60.61;101741.53;2197243;39;115337;-54
2021/06/11 02:54:07;;;;;;;;;;;;;;;23.17;60.53;101733.91;2196780;39;115044;-53
2021/06/11 02:55:39;;;;;;;;;;;;;;;23.14;60.38;101740.13;2203450;39;114065;-54
2021/06/11 02:57:18;;;;;;;;;;;;;;;23.14;60.26;101740.13;2203132;39;115175;-56
2021/06/11 02:58:54;;;;;;;;;;;;;;;23.12;60.50;101743.28;2203246;39;115456;-54
2021/06/11 03:00:28;;;;;;;;;;;;;;;23.14;60.33;101749.44;2199520;39;115359;-54
2021/06/11 03:02:03;;;;;;;;;;;;;;;23.13;60.45;101746.91;2204133;39;114692;-53
2021/06/11 03:03:38;;;;;;;;;;;;;;;23.14;60.51;101743.81;2197818;39;114996;-54
2021/06/11 03:05:10;;;;;;;;;;;;;;;23.16;59.98;101749.16;2201861;39;114590;-54
2021/06/11 03:06:43;;;;;;;;;;;;;;;23.14;60.78;101746.63;2198759;39;116102;-54
2021/06/11 03:08:19;;;;;;;;;;;;;;;23.19;60.48;101735.25;2203537;39;115569;-54
2021/06/11 03:09:54;;;;;;;;;;;;;;;23.16;60.75;101735.88;2195364;39;115680;-55
2021/06/11 03:11:30;;;;;;;;;;;;;;;23.17;60.68;101734.72;2201248;39;116525;-54
2021/06/11 03:13:02;;;;;;;;;;;;;;;23.15;60.87;101734.22;2201489;39;115706;-54
2021/06/11 03:14:35;;;;;;;;;;;;;;;23.17;60.53;101731.91;2194118;39;115952;-53
2021/06/11 03:16:06;;;;;;;;;;;;;;;23.17;60.65;101733.91;2195971;39;115869;-53
2021/06/11 03:17:42;;;;;;;;;;;;;;;23.16;60.71;101733.06;2190047;39;116118;-53
2021/06/11 03:19:16;;;;;;;;;;;;;;;23.16;60.95;101726.59;2197019;39;115674;-53
2021/06/11 03:20:49;;;;;;;;;;;;;;;23.17;60.78;101733.91;2197484;39;115797;-53
2021/06/11 03:22:27;;;;;;;;;;;;;;;23.13;60.96;101727.19;2188534;39;116084;-53
2021/06/11 03:24:03;;;;;;;;;;;;;;;23.13;61.22;101722.38;2189716;39;115784;-53
2021/06/11 03:25:40;;;;;;;;;;;;;;;23.13;61.06;101722.38;2188805;39;115558;-53
2021/06/11 03:27:13;;;;;;;;;;;;;;;23.14;60.97;101723.22;2192491;39;113778;-53
2021/06/11 03:28:47;;;;;;;;;;;;;;;23.14;61.25;101724.06;2190961;39;113797;-54
2021/06/11 03:30:21;;;;;;;;;;;;;;;23.17;61.13;101726.25;2189713;39;113788;-53
2021/06/11 03:31:55;;;;;;;;;;;;;;;23.23;61.21;101729.84;2196405;39;113708;-53
2021/06/11 03:33:33;;;;;;;;;;;;;;;23.18;61.38;101727.94;2199319;39;113690;-53
2021/06/11 03:35:07;;;;;;;;;;;;;;;23.19;61.28;101728.78;2194652;39;114301;-54
2021/06/11 03:36:41;;;;;;;;;;;;;;;23.18;61.22;101727.09;2185874;39;113870;-53
2021/06/11 03:38:15;;;;;;;;;;;;;;;23.17;60.95;101726.25;2191400;39;114121;-53
2021/06/11 03:39:51;;;;;;;;;;;;;;;23.18;61.05;101725.13;2193786;39;114090;-53
2021/06/11 03:41:22;;;;;;;;;;;;;;;23.17;60.86;101729.09;2192229;39;115893;-54
2021/06/11 03:42:55;;;;;;;;;;;;;;;23.15;61.11;101731.38;2198973;39;113806;-53
2021/06/11 03:44:28;;;;;;;;;;;;;;;23.19;61.29;101734.41;2187316;39;113971;-53
2021/06/11 03:46:00;;;;;;;;;;;;;;;23.23;61.37;101736.31;2196909;39;113922;-53
2021/06/11 03:47:35;;;;;;;;;;;;;;;23.22;61.25;101736.63;2198486;39;113965;-53
2021/06/11 03:49:08;;;;;;;;;;;;;;;23.19;61.31;101738.09;2200477;39;113724;-54
2021/06/11 03:50:41;;;;;;;;;;;;;;;23.16;61.08;101735.88;2191159;39;114988;-53
2021/06/11 03:52:13;;;;;;;;;;;;;;;23.21;61.00;101732.16;2192915;39;114946;-53
2021/06/11 03:53:45;;;;;;;;;;;;;;;23.16;61.23;101733.06;2187470;39;114054;-53
2021/06/11 03:55:20;;;;;;;;;;;;;;;23.17;61.03;101731.91;2194110;39;114788;-53
2021/06/11 03:56:53;;;;;;;;;;;;;;;23.16;61.22;101737.88;2198943;39;114827;-54
2021/06/11 03:58:30;;;;;;;;;;;;;;;23.15;60.98;101737.03;2199162;39;114637;-53
2021/06/11 04:00:03;;;;;;;;;;;;;;;23.24;61.19;101742.81;2198469;39;115223;-53
2021/06/11 04:01:36;;;;;;;;;;;;;;;23.17;61.16;101731.09;2191487;39;114346;-54
2021/06/11 04:03:08;;;;;;;;;;;;;;;23.14;61.23;101737.31;2197209;39;114832;-54
2021/06/11 04:04:42;;;;;;;;;;;;;;;23.29;60.95;101739.91;2192431;39;115306;-53
2021/06/11 04:06:17;;;;;;;;;;;;;;;23.22;60.82;101739.44;2189338;39;114766;-53
2021/06/11 04:07:53;;;;;;;;;;;;;;;23.20;60.71;101742.59;2196263;39;114038;-53
2021/06/11 04:09:28;;;;;;;;;;;;;;;23.15;61.15;101736.19;2191842;39;113834;-53
2021/06/11 04:11:01;;;;;;;;;;;;;;;23.21;60.95;101740.59;2194310;39;114865;-54
2021/06/11 04:12:39;;;;;;;;;;;;;;;23.22;60.83;101740.28;2196893;39;115865;-53
2021/06/11 04:14:15;;;;;;;;;;;;;;;23.19;61.04;101740.91;2198821;39;115583;-53
2021/06/11 04:15:48;;;;;;;;;;;;;;;23.18;60.69;101750.50;2198606;39;114419;-54
2021/06/11 04:17:24;;;;;;;;;;;;;;;23.15;60.65;101751.13;2203396;39;116525;-54
2021/06/11 04:18:57;;;;;;;;;;;;;;;23.14;60.57;101755.06;2190435;39;115334;-54
2021/06/11 04:20:29;;;;;;;;;;;;;;;23.15;60.21;101761.56;2198582;39;115994;-57
2021/06/11 04:22:02;;;;;;;;;;;;;;;23.13;60.32;101759.03;2201521;39;115600;-53
2021/06/11 04:23:36;;;;;;;;;;;;;;;23.13;59.97;101753.41;2195867;39;115417;-53
2021/06/11 04:25:11;;;;;;;;;;;;;;;23.12;60.40;101751.75;2205377;39;115723;-53
2021/06/11 04:26:44;;;;;;;;;;;;;;;23.11;60.46;101760.50;2201701;39;115799;-54
2021/06/11 04:28:16;;;;;;;;;;;;;;;23.14;60.44;101751.41;2201036;39;114700;-53
2021/06/11 04:29:48;;;;;;;;;;;;;;;23.12;60.58;101757.38;2194046;39;115749;-53
2021/06/11 04:31:19;;;;;;;;;;;;;;;23.13;60.29;101749.72;2199007;39;115511;-53
2021/06/11 04:32:52;;;;;;;;;;;;;;;23.11;60.27;101752.03;2204605;39;116347;-53
2021/06/11 04:34:24;;;;;;;;;;;;;;;23.12;60.02;101748.09;2194687;39;113766;-53
2021/06/11 04:35:56;;;;;;;;;;;;;;;23.10;60.49;101753.19;2192710;39;114396;-53
2021/06/11 04:37:28;;;;;;;;;;;;;;;23.14;60.44;101748.59;2198515;39;113881;-54
2021/06/11 04:39:01;;;;;;;;;;;;;;;23.11;60.41;101755.69;2200403;39;113818;-53
2021/06/11 04:40:33;;;;;;;;;;;;;;;23.09;60.42;101749.53;2198052;39;113835;-53
2021/06/11 04:42:05;;;;;;;;;;;;;;;23.13;60.38;101746.91;2195122;39;113999;-53
2021/06/11 04:43:36;;;;;;;;;;;;;;;23.09;60.16;101749.53;2202265;39;113833;-53
2021/06/11 04:45:09;;;;;;;;;;;;;;;23.10;60.04;101753.19;2204969;39;114115;-53
2021/06/11 04:46:40;;;;;;;;;;;;;;;23.09;59.97;101746.69;2198057;39;113834;-53
2021/06/11 04:48:12;;;;;;;;;;;;;;;23.11;59.94;101746.41;2202363;39;113775;-53
2021/06/11 04:49:44;;;;;;;;;;;;;;;23.09;60.41;101745.84;2203265;39;115930;-53
2021/06/11 04:51:16;;;;;;;;;;;;;;;23.09;60.47;101755.16;2204541;39;113959;-54
2021/06/11 04:52:47;;;;;;;;;;;;;;;23.12;60.33;101751.75;2205280;39;113610;-53
2021/06/11 04:54:19;;;;;;;;;;;;;;;23.13;60.15;101747.75;2208278;39;113820;-53
2021/06/11 04:55:51;;;;;;;;;;;;;;;23.13;60.52;101752.56;2205345;39;115344;-54
2021/06/11 04:57:22;;;;;;;;;;;;;;;23.11;60.40;101740.75;2202255;39;115419;-53
2021/06/11 04:58:55;;;;;;;;;;;;;;;23.12;60.40;101757.38;2205999;39;113673;-52
2021/06/11 05:00:27;;;;;;;;;;;;;;;23.09;60.40;101752.34;2207352;39;115078;-53
2021/06/11 05:01:58;;;;;;;;;;;;;;;23.14;60.52;101755.06;2198070;39;114870;-53
2021/06/11 05:03:30;;;;;;;;;;;;;;;23.14;60.18;101759.88;2204422;39;115061;-53
2021/06/11 05:05:02;;;;;;;;;;;;;;;23.11;59.99;101755.69;2209803;39;115637;-53
2021/06/11 05:06:34;;;;;;;;;;;;;;;23.11;60.19;101760.50;2204460;39;114192;-53
2021/06/11 05:08:05;;;;;;;;;;;;;;;23.10;60.30;101756.84;2205280;39;115159;-53
2021/06/11 05:09:37;;;;;;;;;;;;;;;23.10;60.24;101754.03;2198123;39;115192;-54
2021/06/11 05:11:09;;;;;;;;;;;;;;;23.11;60.26;101752.88;2203573;39;115490;-53
2021/06/11 05:12:41;;;;;;;;;;;;;;;23.14;60.13;101759.88;2198833;39;115020;-53
2021/06/11 05:14:13;;;;;;;;;;;;;;;23.09;60.11;101752.34;2201149;39;114274;-53
2021/06/11 05:15:44;;;;;;;;;;;;;;;23.12;60.00;101760.19;2201736;39;115027;-53
2021/06/11 05:17:16;;;;;;;;;;;;;;;23.09;59.97;101755.16;2202249;39;115158;-54
2021/06/11 05:18:48;;;;;;;;;;;;;;;23.10;59.75;101756.00;2204959;39;116257;-54
2021/06/11 05:20:20;;;;;;;;;;;;;;;23.08;60.01;101761.94;2202511;39;115735;-53
2021/06/11 05:21:53;;;;;;;;;;;;;;;23.07;60.29;101767.91;2204935;39;116048;-53
2021/06/11 05:23:25;;;;;;;;;;;;;;;23.05;59.86;101757.75;2203358;39;116098;-53
2021/06/11 05:24:59;;;;;;;;;;;;;;;23.05;60.05;101762.56;2190568;39;116114;-53
2021/06/11 05:26:31;;;;;;;;;;;;;;;23.06;59.70;101764.22;2201640;39;115727;-54
2021/06/11 05:28:03;;;;;;;;;;;;;;;23.05;59.70;101766.22;2204115;39;115530;-54
2021/06/11 05:29:35;;;;;;;;;;;;;;;23.05;59.75;101765.38;2190162;39;115549;-54
2021/06/11 05:31:06;;;;;;;;;;;;;;;23.07;59.77;101771.56;2198261;39;115415;-53
2021/06/11 05:32:39;;;;;;;;;;;;;;;23.10;59.97;101764.44;2202083;39;115520;-53
2021/06/11 05:34:11;;;;;;;;;;;;;;;23.13;60.08;101761.84;2205103;39;115606;-53
2021/06/11 05:35:43;;;;;;;;;;;;;;;23.12;60.10;101759.34;2198157;39;115730;-53
2021/06/11 05:37:14;;;;;;;;;;;;;;;23.08;60.01;101767.56;2202374;39;116172;-54
2021/06/11 05:38:46;;;;;;;;;;;;;;;23.09;60.01;101771.22;2200553;39;114455;-53
2021/06/11 05:40:18;;;;;;;;;;;;;;;23.08;59.89;101778.03;2190222;39;113726;-53
2021/06/11 05:41:49;;;;;;;;;;;;;;;23.09;59.95;101785.31;2195948;39;113689;-53
2021/06/11 05:43:21;;;;;;;;;;;;;;;23.11;59.75;101783.06;2201118;39;114143;-55
2021/06/11 05:44:53;;;;;;;;;;;;;;;23.17;59.89;101785.47;2198383;39;114157;-57
2021/06/11 05:46:24;;;;;;;;;;;;;;;23.12;59.69;101785.56;2194156;39;113739;-53
2021/06/11 05:47:57;;;;;;;;;;;;;;;23.09;59.90;101780.53;2198042;39;113843;-53
2021/06/11 05:49:28;;;;;;;;;;;;;;;23.07;59.92;101776.34;2196424;39;113907;-54
2021/06/11 05:51:00;;;;;;;;;;;;;;;23.08;60.03;101792.94;2183733;39;114033;-53
2021/06/11 05:52:32;;;;;;;;;;;;;;;23.10;59.79;101781.38;2194511;39;114214;-53
2021/06/11 05:54:04;;;;;;;;;;;;;;;23.05;60.03;101780.31;2191755;39;114160;-53
2021/06/11 05:55:36;;;;;;;;;;;;;;;23.10;59.82;101778.56;2195683;39;113798;-53
2021/06/11 05:57:07;;;;;;;;;;;;;;;23.04;59.98;101774.97;2202693;39;114154;-53
2021/06/11 05:58:39;;;;;;;;;;;;;;;23.07;59.98;101777.19;2208377;39;113931;-53
2021/06/11 06:00:11;;;;;;;;;;;;;;;23.10;59.88;101778.56;2208071;39;114358;-53
2021/06/11 06:01:43;;;;;;;;;;;;;;;23.09;59.84;101779.69;2193793;39;115127;-53
2021/06/11 06:03:15;;;;;;;;;;;;;;;23.07;59.81;101788.47;2204115;39;114926;-53
2021/06/11 06:04:47;;;;;;;;;;;;;;;23.11;59.66;101786.72;2209869;39;114346;-53
2021/06/11 06:06:18;;;;;;;;;;;;;;;23.04;59.61;101784.25;2191659;39;114797;-53
2021/06/11 06:07:50;;;;;;;;;;;;;;;23.13;59.46;101780.75;2190173;39;115875;-53
2021/06/11 06:09:22;;;;;;;;;;;;;;;23.04;59.95;101780.59;2199606;39;114749;-53
2021/06/11 06:10:54;;;;;;;;;;;;;;;23.05;59.77;101783.13;2205200;39;114767;-54
2021/06/11 06:12:25;;;;;;;;;;;;;;;23.03;59.55;101781.78;2201017;39;114707;-53
2021/06/11 06:13:57;;;;;;;;;;;;;;;23.02;59.78;101785.72;2200227;39;114927;-53
2021/06/11 06:15:29;;;;;;;;;;;;;;;23.11;59.44;101788.69;2202822;39;115451;-53
2021/06/11 06:17:01;;;;;;;;;;;;;;;23.03;59.54;101788.22;2197188;39;114835;-53
2021/06/11 06:18:32;;;;;;;;;;;;;;;23.04;59.55;101789.06;2192475;39;114226;-57
2021/06/11 06:20:05;;;;;;;;;;;;;;;23.08;59.82;101781.66;2201661;39;114944;-53
2021/06/11 06:21:45;;;;;;;;;;;;;;;23.05;59.52;101785.09;2201782;39;114937;-53
2021/06/11 06:23:17;;;;;;;;;;;;;;;23.03;59.57;101779.75;2203973;39;114991;-53
2021/06/11 06:24:48;;;;;;;;;;;;;;;23.03;59.55;101781.78;2203827;39;115565;-53
2021/06/11 06:26:20;;;;;;;;;;;;;;;23.02;59.83;101782.91;2204363;39;115842;-53
2021/06/11 06:27:52;;;;;;;;;;;;;;;23.04;59.74;101784.25;2198119;39;115624;-53
2021/06/11 06:29:24;;;;;;;;;;;;;;;23.01;59.47;101786.84;2201805;39;114646;-54
2021/06/11 06:30:56;;;;;;;;;;;;;;;23.01;59.77;101782.06;2195334;39;115893;-53
2021/06/11 06:32:29;;;;;;;;;;;;;;;23.05;59.79;101785.09;2201052;39;115562;-54
2021/06/11 06:34:01;;;;;;;;;;;;;;;23.08;59.46;101790.13;2203717;39;114640;-53
2021/06/11 06:35:33;;;;;;;;;;;;;;;23.03;59.59;101781.78;2194477;39;115861;-54
2021/06/11 06:37:06;;;;;;;;;;;;;;;23.02;59.75;101782.91;2200917;39;115566;-53
2021/06/11 06:38:39;;;;;;;;;;;;;;;23.03;59.93;101785.41;2197636;39;115585;-55
2021/06/11 06:40:11;;;;;;;;;;;;;;;23.02;59.89;101783.75;2200948;39;115882;-54
2021/06/11 06:41:42;;;;;;;;;;;;;;;23.07;59.98;101782.00;2191602;39;116594;-53
2021/06/11 06:43:14;;;;;;;;;;;;;;;22.99;59.81;101792.78;2199290;39;114792;-54
2021/06/11 06:44:46;;;;;;;;;;;;;;;23.02;59.63;101786.56;2195341;39;113974;-53
2021/06/11 06:46:22;;;;;;;;;;;;;;;22.96;59.85;101790.59;2191919;39;113902;-53
2021/06/11 06:47:54;;;;;;;;;;;;;;;22.95;59.77;101786.09;2200646;39;113715;-54
2021/06/11 06:49:26;;;;;;;;;;;;;;;22.91;59.97;101782.22;2202146;39;114385;-53
2021/06/11 06:50:58;;;;;;;;;;;;;;;22.94;59.84;101786.41;2202436;39;114644;-54
2021/06/11 06:52:29;;;;;;;;;;;;;;;22.83;60.23;101784.88;2201284;39;113799;-53
2021/06/11 06:54:02;;;;;;;;;;;;;;;22.90;59.65;101790.97;2200880;39;114360;-54
2021/06/11 06:55:34;;;;;;;;;;;;;;;22.87;59.39;101791.56;2194671;39;113768;-54
2021/06/11 06:57:06;;;;;;;;;;;;;;;22.85;59.57;101791.06;2201610;39;114050;-54
2021/06/11 06:58:37;;;;;;;;;;;;;;;22.93;59.39;101793.19;2201644;39;113612;-53
2021/06/11 07:00:10;;;;;;;;;;;;;;;22.93;59.25;101784.72;2202240;39;113780;-53
2021/06/11 07:01:42;;;;;;;;;;;;;;;22.91;59.18;101795.47;2195298;39;114058;-54
2021/06/11 07:03:14;;;;;;;;;;;;;;;22.95;58.75;101785.25;2193889;39;113886;-53
2021/06/11 07:04:46;;;;;;;;;;;;;;;22.84;59.22;101787.41;2200232;39;113747;-54
2021/06/11 07:06:18;;;;;;;;;;;;;;;22.87;59.11;101783.13;2195851;39;113722;-53
2021/06/11 07:07:50;;;;;;;;;;;;;;;22.84;58.97;101786.56;2200080;39;115355;-53
2021/06/11 07:09:23;;;;;;;;;;;;;;;22.81;58.93;101788.00;2202216;39;115201;-53
2021/06/11 07:10:54;;;;;;;;;;;;;;;22.79;58.87;101793.09;2198902;39;116162;-54
2021/06/11 07:12:27;;;;;;;;;;;;;;;22.74;58.85;101790.34;2197469;39;115997;-54
2021/06/11 07:13:59;;;;;;;;;;;;;;;22.71;59.00;101787.31;2201556;39;113709;-53
2021/06/11 07:15:30;;;;;;;;;;;;;;;22.63;59.10;101789.63;2198107;39;115420;-53
2021/06/11 07:17:04;;;;;;;;;;;;;;;22.59;59.40;101787.69;2198754;39;114438;-53
2021/06/11 07:18:37;;;;;;;;;;;;;;;22.54;59.51;101790.59;2195155;39;115370;-53
2021/06/11 07:20:09;;;;;;;;;;;;;;;22.49;59.57;101782.19;2200106;39;114828;-56
2021/06/11 07:21:41;;;;;;;;;;;;;;;22.49;59.65;101785.84;2191779;39;114471;-52
2021/06/11 07:23:13;;;;;;;;;;;;;;;22.51;59.46;101794.00;2189509;39;114955;-53
2021/06/11 07:24:45;;;;;;;;;;;;;;;22.51;59.49;101794.00;2201103;39;113995;-54
2021/06/11 07:26:21;;;;;;;;;;;;;;;22.47;59.89;101798.56;2202689;39;114753;-53
2021/06/11 07:27:53;;;;;;;;;;;;;;;22.49;59.57;101799.09;2198369;39;114883;-57
2021/06/11 07:29:25;;;;;;;;;;;;;;;22.59;59.63;101797.00;2203783;39;115087;-54
2021/06/11 07:30:57;;;;;;;;;;;;;;;22.55;59.66;101801.56;2194563;39;115279;-54
2021/06/11 07:32:29;;;;;;;;;;;;;;;22.57;59.68;101804.09;2204010;39;115509;-53
2021/06/11 07:34:01;;;;;;;;;;;;;;;22.57;60.07;101799.28;2207925;39;115467;-54
2021/06/11 07:35:33;;;;;;;;;;;;;;;22.67;59.53;101808.75;2200351;39;115461;-54
2021/06/11 07:37:05;;;;;;;;;;;;;;;22.64;59.55;101793.28;2206586;39;115434;-53
2021/06/11 07:38:37;;;;;;;;;;;;;;;22.65;59.73;101797.78;2201050;39;115939;-54
2021/06/11 07:40:09;;;;;;;;;;;;;;;22.65;59.69;101799.75;2201905;39;115535;-54
2021/06/11 07:41:41;;;;;;;;;;;;;;;22.63;59.54;101800.88;2200950;39;114963;-54
2021/06/11 07:43:13;;;;;;;;;;;;;;;22.66;59.45;101798.63;2201254;39;115793;-58
2021/06/11 07:44:45;;;;;;;;;;;;;;;22.70;59.38;101803.38;2205247;39;114521;-56
2021/06/11 07:46:18;;;;;;;;;;;;;;;22.72;59.36;101801.06;2202972;39;115943;-53
2021/06/11 07:47:50;;;;;;;;;;;;;;;22.72;59.54;101803.06;2206096;39;114595;-54
2021/06/11 07:49:22;;;;;;;;;;;;;;;22.67;59.60;101801.09;2207165;39;116525;-53
2021/06/11 07:50:54;;;;;;;;;;;;;;;22.68;59.55;101807.59;2205562;39;113945;-54